createdAt,value
2022-07-27T00:00:48.096Z,23.59
2022-07-27T00:03:14.902Z,23.58
2022-07-27T00:05:41.775Z,23.54
2022-07-27T00:08:08.521Z,23.51
2022-07-27T00:10:36.833Z,23.49
2022-07-27T00:13:05.147Z,23.48
2022-07-27T00:15:33.524Z,23.46
2022-07-27T00:18:01.153Z,23.43
2022-07-27T00:20:32.051Z,23.40
2022-07-27T00:22:59.609Z,23.33
2022-07-27T00:25:27.643Z,23.26
2022-07-27T00:27:57.941Z,23.18
2022-07-27T00:30:26.183Z,23.19
2022-07-27T00:32:53.337Z,23.19
2022-07-27T00:35:20.182Z,23.15
2022-07-27T00:37:46.871Z,23.10
2022-07-27T00:40:13.553Z,23.13
2022-07-27T00:42:40.197Z,23.14
2022-07-27T00:45:07.673Z,23.20
2022-07-27T00:47:34.336Z,23.19
2022-07-27T00:50:02.938Z,23.19
2022-07-27T00:52:30.721Z,23.14
2022-07-27T00:54:58.706Z,23.07
2022-07-27T00:57:26.965Z,23.09
2022-07-27T00:59:54.162Z,23.11
2022-07-27T01:02:22.956Z,23.15
2022-07-27T01:04:53.665Z,23.14
2022-07-27T01:07:24.722Z,23.13
2022-07-27T01:09:58.195Z,23.13
2022-07-27T01:12:30.728Z,23.11
2022-07-27T01:14:58.764Z,23.09
2022-07-27T01:17:27.172Z,23.04
2022-07-27T01:19:53.854Z,23.05
2022-07-27T01:22:20.582Z,23.04
2022-07-27T01:24:48.553Z,23.15
2022-07-27T01:27:15.213Z,23.26
2022-07-27T01:29:42.092Z,23.39
2022-07-27T01:32:08.912Z,23.48
2022-07-27T01:34:36.060Z,23.53
2022-07-27T01:37:04.741Z,23.52
2022-07-27T01:39:32.239Z,23.52
2022-07-27T01:41:59.695Z,23.49
2022-07-27T01:44:26.570Z,23.41
2022-07-27T01:46:53.633Z,23.41
2022-07-27T01:49:20.535Z,23.46
2022-07-27T01:51:47.220Z,23.51
2022-07-27T01:54:14.061Z,23.50
2022-07-27T01:56:41.158Z,23.53
2022-07-27T01:59:07.946Z,23.55
2022-07-27T02:01:43.069Z,23.53
2022-07-27T02:04:10.000Z,23.46
2022-07-27T02:06:36.713Z,23.42
2022-07-27T02:09:03.662Z,23.42
2022-07-27T02:11:48.883Z,23.42
2022-07-27T02:14:16.470Z,23.39
2022-07-27T02:16:43.447Z,23.35
2022-07-27T02:19:11.276Z,23.35
2022-07-27T02:21:38.951Z,23.34
2022-07-27T02:24:06.015Z,23.29
2022-07-27T02:26:32.748Z,23.23
2022-07-27T02:28:59.500Z,23.21
2022-07-27T02:31:26.171Z,23.15
2022-07-27T02:33:59.516Z,23.14
2022-07-27T02:36:29.154Z,23.16
2022-07-27T02:38:55.802Z,23.08
2022-07-27T02:41:22.509Z,23.05
2022-07-27T02:43:49.115Z,23.10
2022-07-27T02:46:15.914Z,23.12
2022-07-27T02:48:42.629Z,23.00
2022-07-27T02:51:09.260Z,22.94
2022-07-27T02:53:35.943Z,22.97
2022-07-27T02:56:02.717Z,23.00
2022-07-27T02:58:29.687Z,22.96
2022-07-27T03:00:58.604Z,23.01
2022-07-27T03:03:35.986Z,22.98
2022-07-27T03:06:05.957Z,22.95
2022-07-27T03:08:32.613Z,22.89
2022-07-27T03:10:59.363Z,22.95
2022-07-27T03:13:28.865Z,22.92
2022-07-27T03:15:56.544Z,22.89
2022-07-27T03:18:23.405Z,22.87
2022-07-27T03:20:50.177Z,22.84
2022-07-27T03:23:18.423Z,22.88
2022-07-27T03:25:45.095Z,22.87
2022-07-27T03:28:11.931Z,22.87
2022-07-27T03:30:38.614Z,22.81
2022-07-27T03:33:05.305Z,22.75
2022-07-27T03:35:32.089Z,22.74
2022-07-27T03:37:59.034Z,22.72
2022-07-27T03:40:25.688Z,22.73
2022-07-27T03:42:52.324Z,22.76
2022-07-27T03:45:19.404Z,22.79
2022-07-27T03:47:46.021Z,22.79
2022-07-27T03:50:12.674Z,22.75
2022-07-27T03:52:39.349Z,22.74
2022-07-27T03:55:12.068Z,22.68
2022-07-27T03:57:38.719Z,22.60
2022-07-27T04:00:06.795Z,22.48
2022-07-27T04:02:33.581Z,22.43
2022-07-27T04:05:00.261Z,22.41
2022-07-27T04:07:27.177Z,22.47
2022-07-27T04:09:53.855Z,22.46
2022-07-27T04:12:20.605Z,22.35
2022-07-27T04:14:47.965Z,22.33
2022-07-27T04:17:55.569Z,22.40
2022-07-27T04:20:01.330Z,22.38
2022-07-27T04:22:28.296Z,22.42
2022-07-27T04:24:55.078Z,22.48
2022-07-27T04:27:21.823Z,22.50
2022-07-27T04:29:48.917Z,22.50
2022-07-27T04:32:15.630Z,22.46
2022-07-27T04:34:42.310Z,22.44
2022-07-27T04:37:09.053Z,22.41
2022-07-27T04:39:35.722Z,22.40
2022-07-27T04:42:02.494Z,22.33
2022-07-27T04:44:29.262Z,22.28
2022-07-27T04:46:56.156Z,22.22
2022-07-27T04:49:22.998Z,22.16
2022-07-27T04:51:49.774Z,22.18
2022-07-27T04:54:16.472Z,22.15
2022-07-27T04:56:43.234Z,22.08
2022-07-27T04:59:10.317Z,22.02
2022-07-27T05:01:37.313Z,22.01
2022-07-27T05:04:05.285Z,22.06
2022-07-27T05:06:33.048Z,22.14
2022-07-27T05:08:59.966Z,22.18
2022-07-27T05:11:26.739Z,22.19
2022-07-27T05:13:53.424Z,22.22
2022-07-27T05:16:20.486Z,22.29
2022-07-27T05:18:48.661Z,22.39
2022-07-27T05:21:15.300Z,22.50
2022-07-27T05:23:42.083Z,22.56
2022-07-27T05:26:08.834Z,22.60
2022-07-27T05:28:35.514Z,22.65
2022-07-27T05:31:02.589Z,22.68
2022-07-27T05:33:29.319Z,22.65
2022-07-27T05:35:57.135Z,22.69
2022-07-27T05:38:23.858Z,22.75
2022-07-27T05:40:51.540Z,22.81
2022-07-27T05:43:18.240Z,22.83
2022-07-27T05:45:45.098Z,22.84
2022-07-27T05:48:11.849Z,23.01
2022-07-27T05:50:38.548Z,23.15
2022-07-27T05:53:06.058Z,23.26
2022-07-27T05:55:33.459Z,23.34
2022-07-27T05:58:00.293Z,23.42
2022-07-27T06:00:27.252Z,23.48
2022-07-27T06:02:54.587Z,23.55
2022-07-27T06:05:21.421Z,23.56
2022-07-27T06:08:00.544Z,23.50
2022-07-27T06:10:32.781Z,23.57
2022-07-27T06:13:01.036Z,23.57
2022-07-27T06:15:27.779Z,23.61
2022-07-27T06:17:54.961Z,23.52
2022-07-27T06:20:23.253Z,23.50
2022-07-27T06:22:55.452Z,23.49
2022-07-27T06:25:23.090Z,23.53
2022-07-27T06:28:01.405Z,23.47
2022-07-27T06:30:28.392Z,23.56
2022-07-27T06:32:55.207Z,23.61
2022-07-27T06:35:23.393Z,23.76
2022-07-27T06:37:53.000Z,23.91
2022-07-27T06:40:19.862Z,24.00
2022-07-27T06:42:47.044Z,24.06
2022-07-27T06:45:13.801Z,24.22
2022-07-27T06:47:49.924Z,24.28
2022-07-27T06:50:21.362Z,24.19
2022-07-27T06:52:49.692Z,24.06
2022-07-27T06:55:17.093Z,23.90
2022-07-27T06:57:44.091Z,23.77
2022-07-27T07:00:11.872Z,23.64
2022-07-27T07:02:40.270Z,23.60
2022-07-27T07:05:07.140Z,23.65
2022-07-27T07:07:34.079Z,23.86
2022-07-27T07:10:00.964Z,23.87
2022-07-27T07:12:28.559Z,23.75
2022-07-27T07:14:55.378Z,23.56
2022-07-27T07:17:22.205Z,23.45
2022-07-27T07:19:48.998Z,23.50
2022-07-27T07:22:15.804Z,23.77
2022-07-27T07:24:42.745Z,24.14
2022-07-27T07:27:09.416Z,24.83
2022-07-27T07:29:36.059Z,25.45
2022-07-27T07:32:02.794Z,25.81
2022-07-27T07:34:29.647Z,26.03
2022-07-27T07:36:56.400Z,26.04
2022-07-27T07:39:26.637Z,25.78
2022-07-27T07:41:57.469Z,25.51
2022-07-27T07:44:24.236Z,25.32
2022-07-27T07:46:51.179Z,25.24
2022-07-27T07:49:18.485Z,25.41
2022-07-27T07:52:04.906Z,25.69
2022-07-27T07:54:31.667Z,25.98
2022-07-27T07:56:58.260Z,26.59
2022-07-27T07:59:25.094Z,27.09
2022-07-27T08:01:51.942Z,27.39
2022-07-27T08:04:18.687Z,27.50
2022-07-27T08:06:45.958Z,27.35
2022-07-27T08:09:17.037Z,27.29
2022-07-27T08:11:44.827Z,27.20
2022-07-27T08:14:11.525Z,27.15
2022-07-27T08:16:38.587Z,27.20
2022-07-27T08:19:05.435Z,27.03
2022-07-27T08:21:35.393Z,27.48
2022-07-27T08:24:03.746Z,28.03
2022-07-27T08:26:30.553Z,28.40
2022-07-27T08:28:57.261Z,29.04
2022-07-27T08:31:51.621Z,30.43
2022-07-27T08:34:13.028Z,29.88
2022-07-27T08:36:39.736Z,28.88
2022-07-27T08:39:08.452Z,29.04
2022-07-27T08:41:38.905Z,29.60
2022-07-27T08:44:14.123Z,29.29
2022-07-27T08:46:44.407Z,28.53
2022-07-27T08:49:13.432Z,28.22
2022-07-27T08:51:46.856Z,28.06
2022-07-27T08:54:14.079Z,28.30
2022-07-27T08:56:40.924Z,29.29
2022-07-27T08:59:07.693Z,32.44
2022-07-27T09:01:37.422Z,33.75
2022-07-27T09:04:04.431Z,32.74
2022-07-27T09:06:42.949Z,31.58
2022-07-27T09:09:11.399Z,31.08
2022-07-27T09:11:38.618Z,31.92
2022-07-27T09:14:07.365Z,33.52
2022-07-27T09:17:14.756Z,34.42
2022-07-27T09:19:21.944Z,34.64
2022-07-27T09:21:48.641Z,35.70
2022-07-27T09:24:45.770Z,34.58
2022-07-27T09:27:05.625Z,33.25
2022-07-27T09:29:36.544Z,32.50
2022-07-27T09:32:15.282Z,32.39
2022-07-27T09:34:41.922Z,31.95
2022-07-27T09:37:10.674Z,31.45
2022-07-27T09:39:39.113Z,31.24
2022-07-27T09:42:06.109Z,30.98
2022-07-27T09:44:43.719Z,30.74
2022-07-27T09:47:33.335Z,31.02
2022-07-27T09:50:18.212Z,32.59
2022-07-27T09:52:45.672Z,33.56
2022-07-27T09:55:15.292Z,33.05
2022-07-27T09:57:52.661Z,33.90
2022-07-27T10:00:19.778Z,37.00
2022-07-27T10:02:47.466Z,40.33
2022-07-27T10:05:18.145Z,40.61
2022-07-27T10:07:45.467Z,38.98
2022-07-27T10:10:14.502Z,38.58
2022-07-27T10:12:43.183Z,37.81
2022-07-27T10:15:13.448Z,38.58
2022-07-27T10:17:44.096Z,40.20
2022-07-27T10:20:13.862Z,39.48
2022-07-27T10:23:01.033Z,39.28
2022-07-27T10:25:37.374Z,39.52
2022-07-27T10:28:17.731Z,40.02
2022-07-27T10:30:54.546Z,41.81
2022-07-27T10:33:42.717Z,41.85
2022-07-27T10:36:18.050Z,40.06
2022-07-27T10:38:47.999Z,38.70
2022-07-27T10:41:22.489Z,38.28
2022-07-27T10:43:51.423Z,37.70
2022-07-27T10:46:21.273Z,38.25
2022-07-27T10:48:49.446Z,38.60
2022-07-27T10:51:17.370Z,40.21
2022-07-27T10:56:47.186Z,46.18
2022-07-27T10:59:15.057Z,48.13
2022-07-27T11:01:58.399Z,49.34
2022-07-27T11:04:25.416Z,49.66
2022-07-27T11:07:23.452Z,47.01
2022-07-27T11:12:31.082Z,39.87
2022-07-27T11:14:59.240Z,38.57
2022-07-27T11:20:22.546Z,36.22
2022-07-27T11:25:36.146Z,36.35
2022-07-27T11:28:07.586Z,35.32
2022-07-27T11:30:34.427Z,35.04
2022-07-27T11:33:04.766Z,34.77
2022-07-27T11:35:31.568Z,34.46
2022-07-27T11:38:03.810Z,34.23
2022-07-27T11:41:12.785Z,36.05
2022-07-27T11:43:45.409Z,36.67
2022-07-27T11:46:19.990Z,36.56
2022-07-27T11:49:07.531Z,36.35
2022-07-27T11:51:40.097Z,35.90
2022-07-27T11:54:24.821Z,35.16
2022-07-27T11:56:53.081Z,34.72
2022-07-27T11:59:27.853Z,35.65
2022-07-27T12:02:07.139Z,36.49
2022-07-27T12:04:39.485Z,36.12
2022-07-27T12:07:15.875Z,35.67
2022-07-27T12:09:48.027Z,34.99
2022-07-27T12:12:19.773Z,34.67
2022-07-27T12:14:56.642Z,35.03
2022-07-27T12:17:35.568Z,34.91
2022-07-27T12:20:12.946Z,34.77
2022-07-27T12:22:40.680Z,34.58
2022-07-27T12:25:29.828Z,34.33
2022-07-27T12:28:06.809Z,33.65
2022-07-27T12:30:38.906Z,33.13
2022-07-27T12:33:25.531Z,32.87
2022-07-27T12:35:52.255Z,32.94
2022-07-27T12:38:19.172Z,33.01
2022-07-27T12:40:48.426Z,32.93
2022-07-27T12:43:18.137Z,32.65
2022-07-27T12:45:45.957Z,32.43
2022-07-27T12:48:18.445Z,32.07
2022-07-27T12:50:47.402Z,31.90
2022-07-27T12:53:15.846Z,31.97
2022-07-27T12:55:44.178Z,31.89
2022-07-27T12:58:14.118Z,31.50
2022-07-27T13:00:41.285Z,30.98
2022-07-27T13:03:08.645Z,30.70
2022-07-27T13:05:35.757Z,30.74
2022-07-27T13:08:06.263Z,30.75
2022-07-27T13:10:33.295Z,30.87
2022-07-27T13:13:00.222Z,31.00
2022-07-27T13:15:27.209Z,31.11
2022-07-27T13:17:54.203Z,31.12
2022-07-27T13:20:21.234Z,31.10
2022-07-27T13:22:48.411Z,31.00
2022-07-27T13:25:17.503Z,31.01
2022-07-27T13:27:45.334Z,30.69
2022-07-27T13:30:13.531Z,30.52
2022-07-27T13:32:41.209Z,30.58
2022-07-27T13:35:09.516Z,30.38
2022-07-27T13:37:36.484Z,30.40
2022-07-27T13:40:04.900Z,30.57
2022-07-27T13:42:31.606Z,30.55
2022-07-27T13:45:08.740Z,30.42
2022-07-27T13:47:36.977Z,30.40
2022-07-27T13:50:04.810Z,30.35
2022-07-27T13:52:31.546Z,30.38
2022-07-27T13:54:58.312Z,30.33
2022-07-27T13:57:25.198Z,30.27
2022-07-27T13:59:52.303Z,30.35
2022-07-27T14:02:23.014Z,30.27
2022-07-27T14:04:51.908Z,30.22
2022-07-27T14:07:18.839Z,30.46
2022-07-27T14:10:03.741Z,30.64
2022-07-27T14:12:30.392Z,30.60
2022-07-27T14:14:57.125Z,30.50
2022-07-27T14:17:23.841Z,30.51
2022-07-27T14:19:50.492Z,30.88
2022-07-27T14:22:17.150Z,31.20
2022-07-27T14:24:43.766Z,31.38
2022-07-27T14:27:10.435Z,31.10
2022-07-27T14:29:37.163Z,30.79
2022-07-27T14:32:04.217Z,30.52
2022-07-27T14:34:31.004Z,30.28
2022-07-27T14:36:57.711Z,30.13
2022-07-27T14:39:24.606Z,30.35
2022-07-27T14:41:51.565Z,30.77
2022-07-27T14:44:18.877Z,30.84
2022-07-27T14:46:46.842Z,30.58
2022-07-27T14:49:14.853Z,30.17
2022-07-27T14:51:41.824Z,29.84
2022-07-27T14:54:08.635Z,29.70
2022-07-27T14:56:36.628Z,29.74
2022-07-27T14:59:04.019Z,29.71
2022-07-27T15:01:31.065Z,29.81
2022-07-27T15:03:58.048Z,29.87
2022-07-27T15:06:24.798Z,29.82
2022-07-27T15:08:51.543Z,29.74
2022-07-27T15:11:18.279Z,29.64
2022-07-27T15:13:45.245Z,29.80
2022-07-27T15:16:12.284Z,30.12
2022-07-27T15:18:39.259Z,30.29
2022-07-27T15:21:13.483Z,30.40
2022-07-27T15:23:43.327Z,30.40
2022-07-27T15:26:09.956Z,30.42
2022-07-27T15:28:36.849Z,30.40
2022-07-27T15:31:03.649Z,30.42
2022-07-27T15:33:30.596Z,30.27
2022-07-27T15:35:57.260Z,29.60
2022-07-27T15:38:23.920Z,29.04
2022-07-27T15:40:50.668Z,29.10
2022-07-27T15:43:18.386Z,29.33
2022-07-27T15:45:49.881Z,29.47
2022-07-27T15:48:19.477Z,29.60
2022-07-27T15:50:49.876Z,29.77
2022-07-27T15:53:18.778Z,29.88
2022-07-27T15:55:46.528Z,29.82
2022-07-27T15:58:17.984Z,29.63
2022-07-27T16:00:46.884Z,29.66
2022-07-27T16:03:15.105Z,29.57
2022-07-27T16:05:43.718Z,29.08
2022-07-27T16:08:11.047Z,28.86
2022-07-27T16:10:39.549Z,28.81
2022-07-27T16:13:08.817Z,28.65
2022-07-27T16:15:55.308Z,28.43
2022-07-27T16:18:22.959Z,28.44
2022-07-27T16:20:50.273Z,28.65
2022-07-27T16:23:19.170Z,28.73
2022-07-27T16:26:04.441Z,28.90
2022-07-27T16:28:35.103Z,28.99
2022-07-27T16:31:01.976Z,28.95
2022-07-27T16:33:28.717Z,28.97
2022-07-27T16:35:55.390Z,29.07
2022-07-27T16:38:22.158Z,29.13
2022-07-27T16:40:48.998Z,29.09
2022-07-27T16:43:15.697Z,29.00
2022-07-27T16:45:42.590Z,28.88
2022-07-27T16:48:09.883Z,28.87
2022-07-27T16:50:36.563Z,28.80
2022-07-27T16:53:03.281Z,28.65
2022-07-27T16:55:30.103Z,28.55
2022-07-27T16:57:57.063Z,28.52
2022-07-27T17:00:23.750Z,28.46
2022-07-27T17:02:50.610Z,28.37
2022-07-27T17:05:17.278Z,28.26
2022-07-27T17:07:44.039Z,28.21
2022-07-27T17:10:10.787Z,28.01
2022-07-27T17:12:39.138Z,27.86
2022-07-27T17:15:07.333Z,27.86
2022-07-27T17:17:34.687Z,27.84
2022-07-27T17:20:01.492Z,27.79
2022-07-27T17:22:28.166Z,27.73
2022-07-27T17:24:54.949Z,27.68
2022-07-27T17:27:22.099Z,27.67
2022-07-27T17:29:49.547Z,27.60
2022-07-27T17:32:16.480Z,27.54
2022-07-27T17:34:45.396Z,27.50
2022-07-27T17:37:12.826Z,27.41
2022-07-27T17:39:39.551Z,27.31
2022-07-27T17:42:06.443Z,27.20
2022-07-27T17:44:34.023Z,27.11
2022-07-27T17:47:01.590Z,27.10
2022-07-27T17:49:28.676Z,27.10
2022-07-27T17:51:55.752Z,27.02
2022-07-27T17:54:23.919Z,26.89
2022-07-27T17:56:50.683Z,26.81
2022-07-27T17:59:37.127Z,26.79
2022-07-27T18:02:04.855Z,26.74
2022-07-27T18:04:35.629Z,26.73
2022-07-27T18:07:05.488Z,26.62
2022-07-27T18:09:32.172Z,26.42
2022-07-27T18:11:58.986Z,26.27
2022-07-27T18:14:25.771Z,26.22
2022-07-27T18:16:52.466Z,26.24
2022-07-27T18:19:19.166Z,26.26
2022-07-27T18:21:45.885Z,26.24
2022-07-27T18:24:12.536Z,26.24
2022-07-27T18:26:39.209Z,26.21
2022-07-27T18:29:06.428Z,26.16
2022-07-27T18:31:33.163Z,26.06
2022-07-27T18:34:01.550Z,25.99
2022-07-27T18:36:28.798Z,25.93
2022-07-27T18:38:55.792Z,25.91
2022-07-27T18:41:24.776Z,25.83
2022-07-27T18:43:51.674Z,25.78
2022-07-27T18:46:23.414Z,25.71
2022-07-27T18:48:50.606Z,25.66
2022-07-27T18:51:17.495Z,25.63
2022-07-27T18:53:44.953Z,25.62
2022-07-27T18:56:12.273Z,25.59
2022-07-27T18:58:40.600Z,25.55
2022-07-27T19:01:09.629Z,25.49
2022-07-27T19:03:37.427Z,25.41
2022-07-27T19:06:07.453Z,25.37
2022-07-27T19:08:35.266Z,25.31
2022-07-27T19:11:01.944Z,25.26
2022-07-27T19:13:28.819Z,25.22
2022-07-27T19:15:55.641Z,25.20
2022-07-27T19:18:25.087Z,25.17
2022-07-27T19:20:51.807Z,25.10
2022-07-27T19:23:18.617Z,25.05
2022-07-27T19:25:45.556Z,25.01
2022-07-27T19:28:15.838Z,24.97
2022-07-27T19:30:42.855Z,24.92
2022-07-27T19:33:09.536Z,24.88
2022-07-27T19:35:36.384Z,24.84
2022-07-27T19:38:03.743Z,24.80
2022-07-27T19:40:43.927Z,24.79
2022-07-27T19:43:11.646Z,24.76
2022-07-27T19:45:38.396Z,24.71
2022-07-27T19:48:06.049Z,24.68
2022-07-27T19:50:32.997Z,24.58
2022-07-27T19:53:00.373Z,24.50
2022-07-27T19:55:27.175Z,24.52
2022-07-27T19:57:53.940Z,24.52
2022-07-27T20:00:21.091Z,24.50
2022-07-27T20:02:48.281Z,24.50
2022-07-27T20:05:15.236Z,24.51
2022-07-27T20:07:42.081Z,24.48
2022-07-27T20:10:09.629Z,24.46
2022-07-27T20:12:36.446Z,24.40
2022-07-27T20:15:05.019Z,24.32
2022-07-27T20:17:36.819Z,24.27
2022-07-27T20:20:07.689Z,24.28
2022-07-27T20:22:34.441Z,24.24
2022-07-27T20:25:02.316Z,24.20
2022-07-27T20:27:29.066Z,24.16
2022-07-27T20:29:55.784Z,24.07
2022-07-27T20:32:22.509Z,24.06
2022-07-27T20:34:49.202Z,23.97
2022-07-27T20:37:16.351Z,23.93
2022-07-27T20:39:43.104Z,23.88
2022-07-27T20:42:10.884Z,23.82
2022-07-27T20:44:37.663Z,23.70
2022-07-27T20:47:06.245Z,23.65
2022-07-27T20:49:34.281Z,23.60
2022-07-27T20:52:01.996Z,23.57
2022-07-27T20:54:29.821Z,23.55
2022-07-27T20:56:58.092Z,23.53
2022-07-27T20:59:24.953Z,23.54
2022-07-27T21:01:52.622Z,23.53
2022-07-27T21:04:20.446Z,23.44
2022-07-27T21:06:47.597Z,23.43
2022-07-27T21:09:15.636Z,23.37
2022-07-27T21:11:43.259Z,23.38
2022-07-27T21:14:10.243Z,23.38
2022-07-27T21:16:37.451Z,23.32
2022-07-27T21:19:04.704Z,23.25
2022-07-27T21:21:32.453Z,23.27
2022-07-27T21:24:19.978Z,23.23
2022-07-27T21:26:51.687Z,23.20
2022-07-27T21:29:20.458Z,23.21
2022-07-27T21:31:49.475Z,23.20
2022-07-27T21:34:20.017Z,23.19
2022-07-27T21:36:47.741Z,23.21
2022-07-27T21:39:14.945Z,23.24
2022-07-27T21:41:41.824Z,23.27
2022-07-27T21:44:08.775Z,23.28
2022-07-27T21:46:35.645Z,23.26
2022-07-27T21:49:03.366Z,23.25
2022-07-27T21:51:30.313Z,23.23
2022-07-27T21:53:57.193Z,23.19
2022-07-27T21:56:24.560Z,23.14
2022-07-27T21:58:52.027Z,23.08
2022-07-27T22:01:19.316Z,23.06
2022-07-27T22:03:46.888Z,23.04
2022-07-27T22:06:13.850Z,23.03
2022-07-27T22:08:40.641Z,23.02
2022-07-27T22:11:10.381Z,22.96
2022-07-27T22:13:37.610Z,22.89
2022-07-27T22:16:04.979Z,22.92
2022-07-27T22:18:32.323Z,22.89
2022-07-27T22:20:59.080Z,22.90
2022-07-27T22:23:25.850Z,22.92
2022-07-27T22:25:52.598Z,22.87
2022-07-27T22:28:19.394Z,22.87
2022-07-27T22:31:00.150Z,22.84
2022-07-27T22:33:37.261Z,22.85
2022-07-27T22:36:07.161Z,22.83
2022-07-27T22:38:34.315Z,22.89
2022-07-27T22:41:01.628Z,22.89
2022-07-27T22:43:28.471Z,22.85
2022-07-27T22:45:57.167Z,22.80
2022-07-27T22:48:24.784Z,22.75
2022-07-27T22:50:51.611Z,22.76
2022-07-27T22:53:18.414Z,22.75
2022-07-27T22:55:45.045Z,22.75
2022-07-27T22:58:11.843Z,22.70
2022-07-27T23:00:38.891Z,22.69
2022-07-27T23:03:05.775Z,22.66
2022-07-27T23:05:32.890Z,22.65
2022-07-27T23:07:59.679Z,22.60
2022-07-27T23:10:45.313Z,22.59
2022-07-27T23:13:15.619Z,22.56
2022-07-27T23:15:43.470Z,22.56
2022-07-27T23:18:10.485Z,22.49
2022-07-27T23:20:37.665Z,22.46
2022-07-27T23:23:05.480Z,22.47
2022-07-27T23:25:42.900Z,22.42
2022-07-27T23:28:09.723Z,22.38
2022-07-27T23:30:36.571Z,22.27
2022-07-27T23:33:03.379Z,22.25
2022-07-27T23:35:30.575Z,22.26
2022-07-27T23:37:57.422Z,22.19
2022-07-27T23:40:24.144Z,22.19
2022-07-27T23:42:50.856Z,22.15
2022-07-27T23:45:17.912Z,22.06
2022-07-27T23:47:45.218Z,21.98
2022-07-27T23:50:14.422Z,21.97
2022-07-27T23:52:41.167Z,21.93
2022-07-27T23:55:08.445Z,21.90
2022-07-27T23:57:35.313Z,21.86
